createdAt,value
2018-12-15T00:01:11.342Z,0.70
2018-12-15T00:03:39.953Z,0.70
2018-12-15T00:06:08.712Z,0.70
2018-12-15T00:08:37.504Z,0.70
2018-12-15T00:11:06.165Z,0.70
2018-12-15T00:13:34.843Z,0.70
2018-12-15T00:16:03.720Z,0.70
2018-12-15T00:18:32.628Z,0.80
2018-12-15T00:21:01.415Z,0.70
2018-12-15T00:23:30.096Z,0.70
2018-12-15T00:25:58.873Z,0.70
2018-12-15T00:28:27.695Z,0.70
2018-12-15T00:30:56.374Z,0.80
2018-12-15T00:33:25.026Z,0.70
2018-12-15T00:35:53.756Z,0.70
2018-12-15T00:38:22.558Z,0.80
2018-12-15T00:40:51.217Z,0.80
2018-12-15T00:43:19.882Z,0.80
2018-12-15T00:45:48.485Z,0.80
2018-12-15T00:48:17.308Z,0.80
2018-12-15T00:50:45.929Z,0.80
2018-12-15T00:53:14.644Z,0.70
2018-12-15T00:55:43.283Z,0.80
2018-12-15T00:58:12.103Z,0.70
2018-12-15T01:00:40.948Z,0.80
2018-12-15T01:03:09.555Z,0.70
2018-12-15T01:05:38.362Z,0.80
2018-12-15T01:08:07.250Z,0.80
2018-12-15T01:10:36.024Z,0.80
2018-12-15T01:13:04.746Z,0.80
2018-12-15T01:15:38.721Z,0.80
2018-12-15T01:18:07.519Z,0.80
2018-12-15T01:20:36.178Z,0.80
2018-12-15T01:23:04.906Z,0.70
2018-12-15T01:25:33.554Z,0.80
2018-12-15T01:28:02.257Z,0.80
2018-12-15T01:30:30.913Z,0.80
2018-12-15T01:32:59.659Z,0.80
2018-12-15T01:35:28.326Z,0.80
2018-12-15T01:37:56.994Z,0.80
2018-12-15T01:40:25.786Z,0.80
2018-12-15T01:42:54.594Z,0.70
2018-12-15T01:45:23.482Z,0.80
2018-12-15T01:47:52.124Z,0.80
2018-12-15T01:50:20.857Z,0.80
2018-12-15T01:52:49.534Z,0.80
2018-12-15T01:55:18.359Z,0.80
2018-12-15T01:57:46.947Z,0.70
2018-12-15T02:00:15.869Z,0.70
2018-12-15T02:02:44.772Z,0.70
2018-12-15T02:05:13.450Z,0.70
2018-12-15T02:07:42.153Z,0.70
2018-12-15T02:10:11.172Z,0.70
2018-12-15T02:12:39.891Z,0.70
2018-12-15T02:15:08.917Z,0.80
2018-12-15T02:17:37.651Z,0.70
2018-12-15T02:20:06.896Z,0.80
2018-12-15T02:22:35.786Z,0.80
2018-12-15T02:25:04.961Z,0.70
2018-12-15T02:27:33.680Z,0.80
2018-12-15T02:30:02.430Z,0.70
2018-12-15T02:32:31.132Z,0.70
2018-12-15T02:34:59.856Z,0.70
2018-12-15T02:37:30.852Z,0.70
2018-12-15T02:39:59.610Z,0.70
2018-12-15T02:42:28.223Z,0.70
2018-12-15T02:44:56.904Z,0.70
2018-12-15T02:47:25.591Z,0.70
2018-12-15T02:49:55.420Z,0.70
2018-12-15T02:52:24.089Z,0.70
2018-12-15T02:54:54.838Z,0.70
2018-12-15T02:57:23.482Z,0.60
2018-12-15T02:59:52.426Z,0.70
2018-12-15T03:02:21.386Z,0.70
2018-12-15T03:04:50.282Z,0.60
2018-12-15T03:07:18.946Z,0.70
2018-12-15T03:09:47.765Z,0.70
2018-12-15T03:12:16.555Z,0.70
2018-12-15T03:14:45.193Z,0.70
2018-12-15T03:17:13.803Z,0.70
2018-12-15T03:19:42.796Z,0.70
2018-12-15T03:22:11.468Z,0.70
2018-12-15T03:24:40.156Z,0.70
2018-12-15T03:27:09.060Z,0.70
2018-12-15T03:29:37.774Z,0.70
2018-12-15T03:32:06.557Z,0.70
2018-12-15T03:34:35.237Z,0.70
2018-12-15T03:37:03.896Z,0.70
2018-12-15T03:39:32.570Z,0.80
2018-12-15T03:42:01.486Z,0.70
2018-12-15T03:44:30.252Z,0.70
2018-12-15T03:46:59.166Z,0.70
2018-12-15T03:49:27.983Z,0.70
2018-12-15T03:51:56.607Z,0.70
2018-12-15T03:54:25.502Z,0.70
2018-12-15T03:56:54.225Z,0.80
2018-12-15T03:59:23.293Z,0.70
2018-12-15T04:01:51.991Z,0.70
2018-12-15T04:04:20.751Z,0.80
2018-12-15T04:06:49.554Z,0.70
2018-12-15T04:09:18.459Z,0.70
2018-12-15T04:11:47.450Z,0.70
2018-12-15T04:14:16.339Z,0.70
2018-12-15T04:16:45.026Z,0.70
2018-12-15T04:19:13.766Z,0.70
2018-12-15T04:21:42.511Z,0.70
2018-12-15T04:24:11.157Z,0.70
2018-12-15T04:26:39.849Z,0.60
2018-12-15T04:29:12.155Z,0.60
2018-12-15T04:31:40.939Z,0.60
2018-12-15T04:34:09.600Z,0.60
2018-12-15T04:36:38.398Z,0.60
2018-12-15T04:39:07.171Z,0.60
2018-12-15T04:41:35.858Z,0.60
2018-12-15T04:44:05.018Z,0.60
2018-12-15T04:46:33.736Z,0.60
2018-12-15T04:49:02.434Z,0.60
2018-12-15T04:51:31.363Z,0.60
2018-12-15T04:53:59.989Z,0.60
2018-12-15T04:56:28.713Z,0.60
2018-12-15T04:58:57.586Z,0.60
2018-12-15T05:01:26.254Z,0.60
2018-12-15T05:03:55.045Z,0.60
2018-12-15T05:06:23.738Z,0.60
2018-12-15T05:08:52.663Z,0.60
2018-12-15T05:11:21.317Z,0.60
2018-12-15T05:13:49.997Z,0.60
2018-12-15T05:16:18.689Z,0.50
2018-12-15T05:18:47.359Z,0.50
2018-12-15T05:21:16.032Z,0.60
2018-12-15T05:23:44.738Z,0.50
2018-12-15T05:26:13.460Z,0.50
2018-12-15T05:28:42.193Z,0.50
2018-12-15T05:31:10.920Z,0.50
2018-12-15T05:33:39.614Z,0.50
2018-12-15T05:36:08.230Z,0.50
2018-12-15T05:38:36.926Z,0.50
2018-12-15T05:41:05.845Z,0.50
2018-12-15T05:43:34.523Z,0.50
2018-12-15T05:46:03.189Z,0.50
2018-12-15T05:48:32.178Z,0.50
2018-12-15T05:51:00.988Z,0.40
2018-12-15T05:53:29.643Z,0.50
2018-12-15T05:55:58.374Z,0.50
2018-12-15T05:58:27.235Z,0.50
2018-12-15T06:00:56.037Z,0.40
2018-12-15T06:03:24.829Z,0.40
2018-12-15T06:05:53.659Z,0.40
2018-12-15T06:08:22.277Z,0.40
2018-12-15T06:10:50.953Z,0.50
2018-12-15T06:13:19.774Z,0.40
2018-12-15T06:15:48.652Z,0.50
2018-12-15T06:18:17.413Z,0.50
2018-12-15T06:20:46.276Z,0.40
2018-12-15T06:23:15.083Z,0.50
2018-12-15T06:25:43.750Z,0.50
2018-12-15T06:28:12.805Z,0.50
2018-12-15T06:30:42.008Z,0.50
2018-12-15T06:33:10.893Z,0.50
2018-12-15T06:35:39.574Z,0.50
2018-12-15T06:38:08.232Z,0.50
2018-12-15T06:40:37.013Z,0.50
2018-12-15T06:43:05.780Z,0.50
2018-12-15T06:45:34.469Z,0.40
2018-12-15T06:48:03.074Z,0.50
2018-12-15T06:50:32.091Z,0.50
2018-12-15T06:53:00.762Z,0.50
2018-12-15T06:55:29.445Z,0.50
2018-12-15T06:57:58.140Z,0.50
2018-12-15T07:00:26.962Z,0.50
2018-12-15T07:02:55.641Z,0.50
2018-12-15T07:05:24.309Z,0.50
2018-12-15T07:07:52.968Z,0.50
2018-12-15T07:10:21.715Z,0.50
2018-12-15T07:12:50.325Z,0.50
2018-12-15T07:15:19.267Z,0.50
2018-12-15T07:17:48.046Z,0.50
2018-12-15T07:20:16.826Z,0.50
2018-12-15T07:22:45.486Z,0.50
2018-12-15T07:25:14.404Z,0.60
2018-12-15T07:27:43.105Z,0.60
2018-12-15T07:30:11.961Z,0.60
2018-12-15T07:32:40.634Z,0.60
2018-12-15T07:35:09.399Z,0.60
2018-12-15T07:37:38.071Z,0.60
2018-12-15T07:40:07.211Z,0.60
2018-12-15T07:42:36.019Z,0.50
2018-12-15T07:45:05.769Z,0.60
2018-12-15T07:47:34.531Z,0.50
2018-12-15T07:50:03.627Z,0.50
2018-12-15T07:52:32.302Z,0.50
2018-12-15T07:55:00.964Z,0.50
2018-12-15T07:57:29.709Z,0.50
2018-12-15T07:59:58.344Z,0.50
2018-12-15T08:02:27.009Z,0.50
2018-12-15T08:04:55.806Z,0.50
2018-12-15T08:07:24.724Z,0.50
2018-12-15T08:09:53.491Z,0.60
2018-12-15T08:12:27.386Z,0.60
2018-12-15T08:14:56.401Z,0.60
2018-12-15T08:17:25.099Z,0.50
2018-12-15T08:19:53.997Z,0.60
2018-12-15T08:22:26.181Z,0.60
2018-12-15T08:24:53.817Z,0.60
2018-12-15T08:27:22.610Z,0.70
2018-12-15T08:29:51.381Z,0.70
2018-12-15T08:32:20.145Z,0.70
2018-12-15T08:34:48.994Z,0.80
2018-12-15T08:37:17.638Z,0.80
2018-12-15T08:39:46.403Z,0.90
2018-12-15T08:42:15.317Z,0.90
2018-12-15T08:44:44.014Z,0.90
2018-12-15T08:47:13.088Z,0.90
2018-12-15T08:49:41.882Z,1.00
2018-12-15T08:53:36.037Z,0.90
2018-12-15T08:56:04.802Z,1.00
2018-12-15T08:58:33.630Z,1.00
2018-12-15T09:01:02.475Z,1.00
2018-12-15T09:03:31.287Z,1.10
2018-12-15T09:06:00.061Z,1.00
2018-12-15T09:08:28.861Z,1.30
2018-12-15T09:10:57.592Z,1.30
2018-12-15T09:13:26.402Z,1.30
2018-12-15T09:15:55.046Z,1.30
2018-12-15T09:18:23.725Z,1.30
2018-12-15T09:20:52.474Z,1.30
2018-12-15T09:23:21.208Z,1.30
2018-12-15T09:25:49.959Z,1.50
2018-12-15T09:28:18.787Z,1.60
2018-12-15T09:30:47.778Z,1.60
2018-12-15T09:33:16.472Z,1.90
2018-12-15T09:35:45.288Z,1.90
2018-12-15T09:38:13.914Z,2.20
2018-12-15T09:40:42.616Z,2.40
2018-12-15T09:43:11.507Z,2.50
2018-12-15T09:45:40.198Z,2.70
2018-12-15T09:48:08.997Z,2.80
2018-12-15T09:50:37.663Z,3.20
2018-12-15T09:53:06.453Z,2.90
2018-12-15T09:55:35.251Z,3.00
2018-12-15T09:58:04.019Z,2.80
2018-12-15T10:00:33.018Z,2.70
2018-12-15T10:03:01.725Z,2.80
2018-12-15T10:05:30.553Z,2.60
2018-12-15T10:07:59.255Z,2.90
2018-12-15T10:10:27.990Z,3.00
2018-12-15T10:12:56.633Z,2.80
2018-12-15T10:15:25.482Z,2.70
2018-12-15T10:17:54.243Z,2.70
2018-12-15T10:20:23.030Z,2.50
2018-12-15T10:22:51.692Z,2.60
2018-12-15T10:25:20.588Z,2.70
2018-12-15T10:27:49.368Z,2.70
2018-12-15T10:30:23.527Z,2.50
2018-12-15T10:32:52.788Z,2.60
2018-12-15T10:35:22.209Z,2.70
2018-12-15T10:37:50.857Z,2.50
2018-12-15T10:40:19.769Z,2.30
2018-12-15T10:42:48.405Z,2.50
2018-12-15T10:45:17.132Z,2.60
2018-12-15T10:47:45.790Z,2.50
2018-12-15T10:50:14.698Z,2.40
2018-12-15T10:52:43.346Z,2.20
2018-12-15T10:55:11.938Z,2.50
2018-12-15T10:57:40.642Z,2.90
2018-12-15T11:00:18.249Z,3.10
2018-12-15T11:02:46.931Z,3.30
2018-12-15T11:05:15.608Z,3.70
2018-12-15T11:07:44.313Z,4.30
2018-12-15T11:10:12.985Z,4.80
2018-12-15T11:12:41.694Z,4.90
2018-12-15T11:15:10.717Z,4.70
2018-12-15T11:17:39.406Z,4.50
2018-12-15T11:20:08.602Z,4.30
2018-12-15T11:22:37.212Z,4.00
2018-12-15T11:25:07.117Z,4.20
2018-12-15T11:27:35.860Z,4.10
2018-12-15T11:30:05.381Z,4.00
2018-12-15T11:32:34.213Z,3.90
2018-12-15T11:35:03.032Z,3.70
2018-12-15T11:37:31.683Z,3.50
2018-12-15T11:40:00.410Z,3.40
2018-12-15T11:42:29.044Z,2.90
2018-12-15T11:44:57.858Z,2.70
2018-12-15T11:47:26.548Z,2.80
2018-12-15T11:49:55.291Z,2.70
2018-12-15T11:52:23.860Z,2.80
2018-12-15T11:54:52.710Z,2.60
2018-12-15T11:57:21.484Z,2.50
2018-12-15T11:59:50.150Z,2.60
2018-12-15T12:02:18.961Z,2.70
2018-12-15T12:04:47.773Z,2.60
2018-12-15T12:07:16.427Z,2.60
2018-12-15T12:09:45.224Z,2.40
2018-12-15T12:12:13.999Z,2.40
2018-12-15T12:14:42.710Z,2.40
2018-12-15T12:17:12.472Z,2.20
2018-12-15T12:19:41.257Z,2.20
2018-12-15T12:22:10.084Z,2.20
2018-12-15T12:24:38.866Z,2.20
2018-12-15T12:27:07.594Z,2.10
2018-12-15T12:29:36.263Z,2.20
2018-12-15T12:32:05.057Z,2.10
2018-12-15T12:34:33.686Z,2.10
2018-12-15T12:37:02.410Z,2.10
2018-12-15T12:39:31.098Z,2.00
2018-12-15T12:42:00.053Z,2.10
2018-12-15T12:44:28.753Z,2.00
2018-12-15T12:46:57.419Z,1.90
2018-12-15T12:49:26.126Z,1.90
2018-12-15T12:51:54.974Z,1.90
2018-12-15T12:54:23.661Z,1.90
2018-12-15T12:56:52.365Z,1.90
2018-12-15T12:59:21.072Z,1.90
2018-12-15T13:01:49.737Z,1.90
2018-12-15T13:04:18.554Z,1.90
2018-12-15T13:06:47.185Z,1.90
2018-12-15T13:09:15.881Z,2.00
2018-12-15T13:11:44.592Z,1.90
2018-12-15T13:14:13.315Z,1.90
2018-12-15T13:16:41.950Z,1.80
2018-12-15T13:19:10.653Z,1.80
2018-12-15T13:21:39.513Z,1.70
2018-12-15T13:24:08.242Z,1.70
2018-12-15T13:26:36.920Z,1.70
2018-12-15T13:29:05.669Z,1.70
2018-12-15T13:31:34.576Z,1.60
2018-12-15T13:34:03.956Z,1.60
2018-12-15T13:36:32.729Z,1.60
2018-12-15T13:39:01.451Z,1.60
2018-12-15T13:41:30.118Z,1.50
2018-12-15T13:43:58.813Z,1.50
2018-12-15T13:46:27.817Z,1.40
2018-12-15T13:48:56.714Z,1.40
2018-12-15T13:51:25.373Z,1.40
2018-12-15T13:53:54.131Z,1.30
2018-12-15T13:56:22.740Z,1.30
2018-12-15T13:58:51.433Z,1.20
2018-12-15T14:01:21.090Z,1.20
2018-12-15T14:03:49.726Z,1.20
2018-12-15T14:06:18.405Z,1.20
2018-12-15T14:08:47.116Z,1.20
2018-12-15T14:11:15.797Z,1.20
2018-12-15T14:13:44.739Z,1.20
2018-12-15T14:16:13.354Z,1.20
2018-12-15T14:18:42.158Z,1.10
2018-12-15T14:21:11.022Z,1.10
2018-12-15T14:23:39.709Z,1.10
2018-12-15T14:26:08.526Z,1.00
2018-12-15T14:28:37.217Z,1.00
2018-12-15T14:31:05.881Z,1.00
2018-12-15T14:33:34.586Z,0.90
2018-12-15T14:36:03.385Z,0.90
2018-12-15T14:38:32.018Z,0.90
2018-12-15T14:41:00.746Z,0.90
2018-12-15T14:43:29.416Z,0.90
2018-12-15T14:45:58.298Z,0.90
2018-12-15T14:48:27.077Z,0.90
2018-12-15T14:50:55.652Z,0.90
2018-12-15T14:53:24.356Z,0.90
2018-12-15T14:55:53.117Z,0.90
2018-12-15T14:58:21.841Z,0.90
2018-12-15T15:00:50.485Z,0.80
2018-12-15T15:03:19.211Z,0.80
2018-12-15T15:05:48.125Z,0.80
2018-12-15T15:08:16.888Z,0.80
2018-12-15T15:10:45.777Z,0.70
2018-12-15T15:13:14.426Z,0.70
2018-12-15T15:15:43.173Z,0.60
2018-12-15T15:18:11.936Z,0.60
2018-12-15T15:20:40.665Z,0.50
2018-12-15T15:23:09.300Z,0.40
2018-12-15T15:25:38.104Z,0.40
2018-12-15T15:28:06.873Z,0.40
2018-12-15T15:30:36.018Z,0.40
2018-12-15T15:33:04.864Z,0.30
2018-12-15T15:35:33.674Z,0.20
2018-12-15T15:38:02.337Z,0.20
2018-12-15T15:40:31.018Z,0.20
2018-12-15T15:42:59.721Z,0.20
2018-12-15T15:45:28.369Z,0.10
2018-12-15T15:47:57.277Z,0.10
2018-12-15T15:50:25.917Z,0.10
2018-12-15T15:52:54.637Z,0.10
2018-12-15T15:55:23.315Z,0.00
2018-12-15T15:57:52.124Z,0.10
2018-12-15T16:00:21.143Z,0.10
2018-12-15T16:02:49.796Z,0.10
2018-12-15T16:05:18.579Z,0.10
2018-12-15T16:07:47.273Z,0.10
2018-12-15T16:10:15.929Z,0.10
2018-12-15T16:12:44.665Z,0.10
2018-12-15T16:15:13.599Z,0.10
2018-12-15T16:17:42.181Z,0.10
2018-12-15T16:20:12.864Z,0.10
2018-12-15T16:22:41.521Z,0.00
2018-12-15T16:25:10.335Z,0.10
2018-12-15T16:27:38.990Z,0.00
2018-12-15T16:30:11.421Z,0.00
2018-12-15T16:32:40.320Z,0.00
2018-12-15T16:35:09.369Z,0.00
2018-12-15T16:37:38.008Z,0.00
2018-12-15T16:40:07.770Z,0.00
2018-12-15T16:42:37.263Z,0.00
2018-12-15T16:45:08.611Z,0.00
2018-12-15T16:47:37.313Z,-0.10
2018-12-15T16:50:09.061Z,0.00
2018-12-15T16:52:38.066Z,0.00
2018-12-15T16:55:07.133Z,-0.10
2018-12-15T16:57:35.849Z,0.00
2018-12-15T17:00:07.317Z,-0.10
2018-12-15T17:02:36.066Z,-0.10
2018-12-15T17:05:05.674Z,-0.10
2018-12-15T17:07:34.341Z,-0.10
2018-12-15T17:10:03.145Z,-0.10
2018-12-15T17:12:31.924Z,-0.10
2018-12-15T17:15:00.706Z,-0.10
2018-12-15T17:17:29.369Z,-0.10
2018-12-15T17:19:58.186Z,-0.10
2018-12-15T17:22:26.870Z,-0.10
2018-12-15T17:24:55.557Z,-0.10
2018-12-15T17:27:30.630Z,-0.10
2018-12-15T17:29:59.254Z,-0.10
2018-12-15T17:32:28.250Z,-0.10
2018-12-15T17:34:57.134Z,-0.10
2018-12-15T17:37:26.781Z,-0.10
2018-12-15T17:39:55.421Z,-0.10
2018-12-15T17:42:24.385Z,-0.10
2018-12-15T17:44:53.133Z,-0.10
2018-12-15T17:47:21.788Z,-0.10
2018-12-15T17:49:50.572Z,-0.10
2018-12-15T17:52:19.250Z,-0.10
2018-12-15T17:54:48.049Z,-0.20
2018-12-15T17:57:16.840Z,-0.10
2018-12-15T17:59:45.554Z,-0.20
2018-12-15T18:02:14.197Z,-0.10
2018-12-15T18:04:42.876Z,-0.10
2018-12-15T18:07:11.653Z,-0.10
2018-12-15T18:09:40.404Z,-0.10
2018-12-15T18:12:09.051Z,-0.10
2018-12-15T18:14:37.781Z,-0.10
2018-12-15T18:17:06.132Z,-0.10
2018-12-15T18:19:34.964Z,-0.10
2018-12-15T18:22:03.589Z,-0.10
2018-12-15T18:24:32.248Z,0.00
2018-12-15T18:27:00.871Z,0.10
2018-12-15T18:29:29.529Z,0.10
2018-12-15T18:31:58.261Z,0.10
2018-12-15T18:34:26.893Z,0.10
2018-12-15T18:36:55.669Z,0.10
2018-12-15T18:39:24.567Z,0.10
2018-12-15T18:41:53.161Z,0.20
2018-12-15T18:44:21.851Z,0.20
2018-12-15T18:46:51.560Z,0.10
2018-12-15T18:49:20.349Z,0.20
2018-12-15T18:51:49.271Z,0.20
2018-12-15T18:54:17.933Z,0.20
2018-12-15T18:56:46.827Z,0.20
2018-12-15T18:59:15.618Z,0.20
2018-12-15T19:01:44.306Z,0.20
2018-12-15T19:04:12.964Z,0.30
2018-12-15T19:06:41.830Z,0.30
2018-12-15T19:09:10.541Z,0.20
2018-12-15T19:11:39.251Z,0.30
2018-12-15T19:14:07.913Z,0.20
2018-12-15T19:16:37.177Z,0.20
2018-12-15T19:19:05.811Z,0.20
2018-12-15T19:21:34.584Z,0.20
2018-12-15T19:24:03.287Z,0.30
2018-12-15T19:26:32.655Z,0.30
2018-12-15T19:29:01.380Z,0.30
2018-12-15T19:31:30.022Z,0.30
2018-12-15T19:33:58.720Z,0.30
2018-12-15T19:36:27.561Z,0.30
2018-12-15T19:38:56.212Z,0.30
2018-12-15T19:41:24.994Z,0.40
2018-12-15T19:43:53.671Z,0.30
2018-12-15T19:46:22.370Z,0.30
2018-12-15T19:48:51.041Z,0.30
2018-12-15T19:51:19.653Z,0.30
2018-12-15T19:53:48.431Z,0.30
2018-12-15T19:56:17.114Z,0.30
2018-12-15T19:58:45.766Z,0.30
2018-12-15T20:01:16.174Z,0.30
2018-12-15T20:03:47.513Z,0.40
2018-12-15T20:06:20.598Z,0.40
2018-12-15T20:08:55.702Z,0.40
2018-12-15T20:11:30.290Z,0.40
2018-12-15T20:13:58.980Z,0.40
2018-12-15T20:16:27.689Z,0.40
2018-12-15T20:18:56.379Z,0.40
2018-12-15T20:21:25.062Z,0.40
2018-12-15T20:23:53.937Z,0.40
2018-12-15T20:26:22.610Z,0.40
2018-12-15T20:28:51.466Z,0.40
2018-12-15T20:31:20.102Z,0.40
2018-12-15T20:33:48.894Z,0.40
2018-12-15T20:36:17.683Z,0.40
2018-12-15T20:38:46.337Z,0.40
2018-12-15T20:41:15.012Z,0.40
2018-12-15T20:43:43.654Z,0.40
2018-12-15T20:46:12.294Z,0.40
2018-12-15T20:48:41.008Z,0.40
2018-12-15T20:51:09.699Z,0.40
2018-12-15T20:53:38.490Z,0.40
2018-12-15T20:56:07.118Z,0.40
2018-12-15T20:58:35.826Z,0.40
2018-12-15T21:01:04.650Z,0.40
2018-12-15T21:03:33.290Z,0.40
2018-12-15T21:06:01.982Z,0.50
2018-12-15T21:08:30.639Z,0.40
2018-12-15T21:10:59.282Z,0.50
2018-12-15T21:13:28.077Z,0.50
2018-12-15T21:15:58.596Z,0.50
2018-12-15T21:18:27.477Z,0.60
2018-12-15T21:20:56.150Z,0.60
2018-12-15T21:23:24.842Z,0.60
2018-12-15T21:25:53.546Z,0.60
2018-12-15T21:28:22.204Z,0.60
2018-12-15T21:30:50.904Z,0.60
2018-12-15T21:33:19.649Z,0.70
2018-12-15T21:35:49.229Z,0.70
2018-12-15T21:38:17.897Z,0.70
2018-12-15T21:40:46.661Z,0.70
2018-12-15T21:43:15.334Z,0.60
2018-12-15T21:45:44.023Z,0.50
2018-12-15T21:48:12.715Z,0.60
2018-12-15T21:50:41.423Z,0.60
2018-12-15T21:53:10.194Z,0.60
2018-12-15T21:55:38.863Z,0.60
2018-12-15T21:58:07.578Z,0.60
2018-12-15T22:00:36.247Z,0.50
2018-12-15T22:03:04.946Z,0.50
2018-12-15T22:05:33.601Z,0.40
2018-12-15T22:08:02.305Z,0.40
2018-12-15T22:10:30.990Z,0.40
2018-12-15T22:12:59.649Z,0.40
2018-12-15T22:15:28.458Z,0.40
2018-12-15T22:17:57.175Z,0.40
2018-12-15T22:20:26.098Z,0.40
2018-12-15T22:22:54.827Z,0.40
2018-12-15T22:25:23.496Z,0.40
2018-12-15T22:27:52.165Z,0.40
2018-12-15T22:30:20.849Z,0.40
2018-12-15T22:32:49.659Z,0.30
2018-12-15T22:35:18.325Z,0.40
2018-12-15T22:37:47.004Z,0.40
2018-12-15T22:40:15.722Z,0.30
2018-12-15T22:42:44.406Z,0.30
2018-12-15T22:45:13.108Z,0.40
2018-12-15T22:47:41.895Z,0.30
2018-12-15T22:50:10.950Z,0.30
2018-12-15T22:52:39.577Z,0.30
2018-12-15T22:55:36.390Z,0.30
2018-12-15T22:58:06.949Z,0.30
2018-12-15T23:00:43.310Z,0.30
2018-12-15T23:03:12.001Z,0.30
2018-12-15T23:05:40.621Z,0.20
2018-12-15T23:08:09.246Z,0.10
2018-12-15T23:10:38.188Z,0.20
2018-12-15T23:13:07.342Z,0.10
2018-12-15T23:15:36.096Z,0.10
2018-12-15T23:18:04.909Z,0.10
2018-12-15T23:20:33.595Z,0.10
2018-12-15T23:23:02.247Z,0.10
2018-12-15T23:25:31.153Z,0.10
2018-12-15T23:28:00.250Z,0.00
2018-12-15T23:30:28.924Z,0.00
2018-12-15T23:32:57.638Z,0.00
2018-12-15T23:35:26.526Z,0.00
2018-12-15T23:37:55.320Z,0.00
2018-12-15T23:40:23.972Z,0.00
2018-12-15T23:42:52.687Z,-0.10
2018-12-15T23:45:21.337Z,-0.10
2018-12-15T23:47:50.030Z,-0.20
2018-12-15T23:50:18.739Z,-0.20
2018-12-15T23:52:47.322Z,-0.10
2018-12-15T23:55:16.104Z,-0.20
2018-12-15T23:57:44.768Z,-0.30
